Search for airport 
image banner adimage banner adimage banner ad
image banner ad

IA91 - Montgomery County Memorial

Located in Red Oak, United States

ICAO - IA91, IATA -

Data provided by Airmate  

General information

Coordinates: N41°1'39" W95°12'51"
Elevation is 1181 feet MSL.
Magnetic variation is 06° East
View others Airports in Iowa

Operational data

Special qualification required
Current time UTC:
Current local time:
Weather at : KRDK - Red Oak Muni ( 4 km )
METAR: KRDK 181715Z AUTO 36004KT 10SM CLR 28/21 A2991 RMK AO2
View NOTAMs / SUP AIP / TFR affecting this airport [VIEW]
Communications frequencies: [VIEW]

Runways:

Airport contact information

Address: Red Oak United States

Satellite view of IA91